Time;durP1;ratioP1;P1;durP2;ratioP2;P2;SDS_P1;SDS_P2;PMS_P1;PMS_P2;Temp;Humidity;BMP_temperature;BMP_pressure;BME280_temperature;BME280_humidity;BME280_pressure;Samples;Min_cycle;Max_cycle;Signal;HPM_P1;HPM_P2
2022/07/05 00:00:19;;;;;;;0.60;0.20;;;;;;;23.15;39.80;102080.13;16148324;19;129452;-58
2022/07/05 00:05:41;;;;;;;1.85;0.30;;;;;;;23.15;39.87;102076.47;16144796;19;129583;-53
2022/07/05 00:11:02;;;;;;;2.25;0.40;;;;;;;23.14;39.73;102070.06;16145239;19;129609;-56
2022/07/05 00:16:24;;;;;;;0.22;0.10;;;;;;;23.12;39.85;102069.44;16141224;19;129371;-56
2022/07/05 00:21:46;;;;;;;0.35;0.20;;;;;;;23.12;39.90;102072.25;16143627;19;129218;-56
2022/07/05 00:27:08;;;;;;;0.17;0.17;;;;;;;23.11;39.89;102075.28;16141592;19;131019;-53
2022/07/05 00:32:30;;;;;;;0.25;0.10;;;;;;;23.11;39.78;102069.72;16140865;19;129785;-56
2022/07/05 00:37:51;;;;;;;0.50;0.25;;;;;;;23.09;39.88;102074.69;16140574;19;129027;-57
2022/07/05 00:43:13;;;;;;;0.15;0.10;;;;;;;23.09;39.85;102071.91;16136849;19;129761;-56
2022/07/05 00:48:35;;;;;;;0.50;0.20;;;;;;;23.07;39.72;102069.38;16138918;19;130596;-56
2022/07/05 00:53:58;;;;;;;0.85;0.10;;;;;;;23.06;39.85;102073.25;16138648;19;130139;-57
2022/07/05 00:59:19;;;;;;;0.10;0.10;;;;;;;23.05;39.96;102075.19;16139135;19;131430;-58
2022/07/05 01:04:41;;;;;;;0.10;0.10;;;;;;;23.03;39.80;102074.56;16140375;19;129725;-57
2022/07/05 01:10:04;;;;;;;0.20;0.13;;;;;;;23.03;39.90;102068.16;16140213;19;128869;-56
2022/07/05 01:15:26;;;;;;;0.40;0.20;;;;;;;23.03;39.96;102059.78;16135562;19;129047;-57
2022/07/05 01:20:49;;;;;;;0.30;0.10;;;;;;;23.02;40.15;102066.47;16139537;19;129541;-54
2022/07/05 01:26:11;;;;;;;0.10;0.08;;;;;;;23.01;40.23;102067.56;16141465;19;129468;-56
2022/07/05 01:31:37;;;;;;;0.10;0.10;;;;;;;23.00;40.08;102069.53;16138705;19;129771;-58
2022/07/05 01:36:59;;;;;;;0.70;0.30;;;;;;;22.98;39.91;102063.34;16138301;19;130042;-58
2022/07/05 01:42:21;;;;;;;0.30;0.10;;;;;;;22.98;40.34;102059.69;16134070;19;130014;-56
2022/07/05 01:47:48;;;;;;;0.70;0.10;;;;;;;22.95;39.84;102065.78;16131119;19;132153;-57
2022/07/05 01:53:23;;;;;;;0.40;0.10;;;;;;;22.98;39.82;102066.13;16136453;19;130090;-55
2022/07/05 01:58:45;;;;;;;0.63;0.20;;;;;;;22.94;40.05;102070.50;16132123;19;129642;-56
2022/07/05 02:04:09;;;;;;;0.10;0.10;;;;;;;22.93;40.10;102065.19;16134985;19;129666;-56
2022/07/05 02:09:31;;;;;;;2.88;0.20;;;;;;;22.91;40.13;102068.19;16136146;19;129571;-56
2022/07/05 02:20:18;;;;;;;0.10;0.10;;;;;;;22.90;39.96;102063.72;16136503;19;129681;-56
2022/07/05 02:25:40;;;;;;;0.10;0.10;;;;;;;22.88;40.02;102061.16;16136173;19;129789;-55
2022/07/05 02:31:02;;;;;;;0.00;0.00;;;;;;;22.88;40.19;102061.16;16134748;19;129759;-56
2022/07/05 02:36:24;;;;;;;0.20;0.08;;;;;;;22.87;39.99;102064.19;16129608;19;129631;-58
2022/07/05 02:41:46;;;;;;;0.30;0.10;;;;;;;22.85;40.25;102067.22;16134943;19;132335;-57
2022/07/05 02:47:08;;;;;;;0.25;0.10;;;;;;;22.85;40.18;102061.63;16133443;19;131441;-54
2022/07/05 02:52:29;;;;;;;1.55;0.10;;;;;;;22.84;40.43;102068.31;16133212;19;129832;-56
2022/07/05 02:57:51;;;;;;;0.20;0.20;;;;;;;22.85;40.03;102060.81;16130320;19;132104;-59
2022/07/05 03:03:14;;;;;;;0.22;0.15;;;;;;;22.83;40.29;102062.97;16133782;19;129590;-54
2022/07/05 03:08:36;;;;;;;0.20;0.10;;;;;;;22.82;40.19;102067.72;16133209;19;128982;-59
2022/07/05 03:13:57;;;;;;;0.17;0.10;;;;;;;22.82;39.94;102061.28;16129680;19;129627;-58
2022/07/05 03:19:19;;;;;;;0.25;0.20;;;;;;;22.81;40.15;102059.59;16127835;19;129416;-59
2022/07/05 03:24:41;;;;;;;0.10;0.10;;;;;;;22.80;40.56;102067.13;16142058;19;129741;-57
2022/07/05 03:30:04;;;;;;;2.35;0.63;;;;;;;22.79;40.28;102068.22;16146518;19;131162;-58
2022/07/05 03:35:27;;;;;;;0.08;0.03;;;;;;;22.78;40.63;102085.19;16143391;19;129802;-58
2022/07/05 03:40:49;;;;;;;0.20;0.10;;;;;;;22.78;40.29;102082.41;16147309;19;130332;-57
2022/07/05 03:46:11;;;;;;;0.10;0.10;;;;;;;22.74;40.26;102080.13;16145603;19;130240;-58
2022/07/05 03:51:33;;;;;;;0.40;0.10;;;;;;;22.76;40.38;102087.41;16146100;19;130090;-58
2022/07/05 03:56:55;;;;;;;0.28;0.20;;;;;;;22.76;40.30;102084.59;16139051;19;129617;-56
2022/07/05 04:02:16;;;;;;;0.45;0.10;;;;;;;22.74;40.30;102082.91;16142797;19;129120;-58
2022/07/05 04:07:53;;;;;;;0.05;0.05;;;;;;;22.75;40.35;102086.53;16142016;19;129018;-58
2022/07/05 04:13:16;;;;;;;0.30;0.13;;;;;;;22.72;40.07;102089.81;16142484;19;129210;-57
2022/07/05 04:18:37;;;;;;;0.50;0.20;;;;;;;22.72;40.63;102090.66;16138707;19;129777;-56
2022/07/05 04:23:59;;;;;;;0.15;0.10;;;;;;;22.71;40.29;102097.34;16144974;19;129684;-56
2022/07/05 04:29:21;;;;;;;0.35;0.10;;;;;;;22.72;40.38;102107.41;16144174;19;130776;-56
2022/07/05 04:34:43;;;;;;;0.15;0.00;;;;;;;22.71;40.36;102097.34;16137790;19;129396;-58
2022/07/05 04:40:06;;;;;;;0.40;0.20;;;;;;;22.71;40.40;102104.84;16142173;19;129547;-57
2022/07/05 04:45:28;;;;;;;0.20;0.10;;;;;;;22.69;40.37;102105.09;16143400;19;130875;-57
2022/07/05 04:50:50;;;;;;;0.10;0.10;;;;;;;22.70;40.35;102111.53;16141718;19;129224;-58
2022/07/05 04:56:12;;;;;;;0.10;0.10;;;;;;;22.70;40.68;102117.13;16138258;19;129708;-57
2022/07/05 05:01:33;;;;;;;0.20;0.10;;;;;;;22.70;40.42;102111.53;16139983;19;129142;-57
2022/07/05 05:06:55;;;;;;;0.10;0.10;;;;;;;22.69;40.35;102123.81;16141998;19;129919;-56
2022/07/05 05:12:17;;;;;;;0.10;0.10;;;;;;;22.68;40.21;102128.50;16140111;19;130130;-57
2022/07/05 05:17:41;;;;;;;0.10;0.10;;;;;;;22.69;40.47;102118.22;16134388;19;129049;-58
2022/07/05 05:23:03;;;;;;;5.03;0.30;;;;;;;22.67;40.45;102129.59;16138508;19;129772;-55
2022/07/05 05:28:25;;;;;;;6.82;0.20;;;;;;;22.70;40.32;102129.13;16137749;19;129536;-57
2022/07/05 05:33:46;;;;;;;1.75;0.30;;;;;;;22.71;40.51;102130.81;16137259;19;130209;-54
2022/07/05 05:39:08;;;;;;;0.60;0.10;;;;;;;22.70;40.19;102140.28;16137615;19;129673;-57
2022/07/05 05:44:30;;;;;;;0.30;0.10;;;;;;;22.71;40.58;102139.19;16137074;19;129541;-57
2022/07/05 05:49:52;;;;;;;1.23;0.30;;;;;;;22.71;40.26;102155.94;16138952;19;130180;-56
2022/07/05 05:55:14;;;;;;;0.95;0.30;;;;;;;22.72;40.46;102146.47;16134640;19;128932;-57
2022/07/05 06:00:35;;;;;;;1.58;0.30;;;;;;;22.72;40.72;102151.19;16137302;19;130106;-54
2022/07/05 06:05:57;;;;;;;0.55;0.25;;;;;;;22.72;40.70;102152.03;16135652;19;129503;-57
2022/07/05 06:11:19;;;;;;;1.35;0.25;;;;;;;22.73;40.51;102158.47;16137200;19;129111;-56
2022/07/05 06:16:41;;;;;;;0.65;0.22;;;;;;;22.73;40.35;102159.31;16126775;19;131874;-57
2022/07/05 06:22:03;;;;;;;1.65;0.30;;;;;;;22.74;40.45;102177.75;16134701;19;131070;-57
2022/07/05 06:27:25;;;;;;;2.67;0.30;;;;;;;22.73;40.64;102173.28;16129137;19;130337;-58
2022/07/05 06:32:54;;;;;;;0.85;0.25;;;;;;;22.74;40.58;102177.75;16130149;19;130566;-59
2022/07/05 06:38:16;;;;;;;0.82;0.30;;;;;;;22.74;40.46;102177.75;16127869;19;129278;-55
2022/07/05 06:43:37;;;;;;;1.25;0.30;;;;;;;22.73;40.37;102184.44;16133332;19;129340;-58
2022/07/05 06:48:59;;;;;;;1.17;0.20;;;;;;;22.74;40.64;102183.34;16129418;19;129621;-59
2022/07/05 06:54:21;;;;;;;2.78;0.30;;;;;;;22.76;40.57;102182.25;16124966;19;129833;-57
2022/07/05 07:00:04;;;;;;;0.98;0.30;;;;;;;22.77;40.10;102186.75;16140330;19;130350;-58
2022/07/05 07:05:46;;;;;;;0.65;0.30;;;;;;;22.76;40.29;102190.63;16146655;19;129394;-58
2022/07/05 07:11:24;;;;;;;0.50;0.20;;;;;;;22.76;40.51;102197.03;16149467;19;129996;-53
2022/07/05 07:16:46;;;;;;;1.20;0.30;;;;;;;22.77;40.31;102197.91;16142460;19;129420;-58
2022/07/05 07:22:08;;;;;;;2.70;0.40;;;;;;;22.78;40.26;102197.66;16148104;19;130526;-58
2022/07/05 07:27:31;;;;;;;1.13;0.40;;;;;;;22.79;40.07;102190.09;16141393;19;129530;-55
2022/07/05 07:32:53;;;;;;;3.22;0.40;;;;;;;22.80;40.27;102194.59;16148523;19;130645;-57
2022/07/05 07:38:15;;;;;;;1.05;0.20;;;;;;;22.80;40.54;102197.38;16138391;19;129328;-58
2022/07/05 07:43:37;;;;;;;1.13;0.30;;;;;;;22.80;40.46;102208.56;16136073;19;129807;-58
2022/07/05 07:48:59;;;;;;;1.15;0.30;;;;;;;22.81;40.42;102215.81;16145107;19;129382;-57
2022/07/05 07:54:21;;;;;;;1.05;0.50;;;;;;;22.83;40.22;102219.22;16141264;19;128968;-58
2022/07/05 07:59:43;;;;;;;1.23;0.35;;;;;;;22.82;40.20;102218.41;16138247;19;131148;-56
2022/07/05 08:05:05;;;;;;;0.65;0.30;;;;;;;22.83;40.29;102219.22;16138747;19;129361;-55
2022/07/05 08:10:27;;;;;;;0.43;0.28;;;;;;;22.84;40.50;102215.34;16142395;19;129378;-56
2022/07/05 08:15:48;;;;;;;1.02;0.30;;;;;;;22.84;40.51;102216.19;16137921;19;129504;-58
2022/07/05 08:26:51;;;;;;;1.33;0.40;;;;;;;22.84;40.65;102205.03;16143250;19;129702;-57
2022/07/05 08:32:13;;;;;;;1.95;0.40;;;;;;;22.85;40.43;102206.72;16138911;19;129952;-58
2022/07/05 08:37:38;;;;;;;1.10;0.50;;;;;;;22.86;40.46;102202.00;16139908;19;129931;-57
2022/07/05 08:43:02;;;;;;;0.97;0.40;;;;;;;22.86;40.49;102207.59;16145156;19;130644;-57
2022/07/05 08:48:27;;;;;;;0.45;0.30;;;;;;;22.86;40.46;102207.59;16144021;19;129705;-58
2022/07/05 08:53:50;;;;;;;0.77;0.40;;;;;;;22.88;40.17;102199.81;16140627;19;129492;-59
2022/07/05 08:59:12;;;;;;;0.73;0.30;;;;;;;22.87;40.33;102200.91;16137213;19;132248;-58
2022/07/05 09:04:40;;;;;;;0.75;0.38;;;;;;;22.89;40.75;102207.09;16142765;19;128926;-57
2022/07/05 09:10:04;;;;;;;0.73;0.20;;;;;;;22.89;40.50;102209.91;16142619;19;129168;-57
2022/07/05 09:15:26;;;;;;;0.60;0.20;;;;;;;22.91;40.58;102221.66;16140340;19;129378;-53
2022/07/05 09:20:48;;;;;;;0.30;0.13;;;;;;;22.91;40.35;102220.84;16137158;19;129924;-56
2022/07/05 09:26:12;;;;;;;1.30;0.27;;;;;;;22.91;40.41;102220.84;16141129;19;129441;-58
2022/07/05 09:31:39;;;;;;;4.35;0.28;;;;;;;22.92;40.21;102226.16;16142961;19;129716;-57
2022/07/05 09:37:03;;;;;;;0.30;0.10;;;;;;;22.94;40.54;102231.50;16139647;19;130329;-57
2022/07/05 09:42:25;;;;;;;0.30;0.20;;;;;;;22.93;40.83;102219.50;16139602;19;128992;-55
2022/07/05 09:47:47;;;;;;;0.88;0.30;;;;;;;23.00;40.60;102213.78;16141324;19;129398;-57
2022/07/05 09:53:49;;;;;;;0.38;0.20;;;;;;;23.07;40.32;102214.50;16140698;19;129382;-58
2022/07/05 09:59:20;;;;;;;0.75;0.20;;;;;;;23.10;40.34;102202.81;16135573;19;129516;-59
2022/07/05 10:04:43;;;;;;;0.20;0.10;;;;;;;23.12;40.54;102200.66;16139767;19;129777;-58
2022/07/05 10:10:05;;;;;;;0.63;0.20;;;;;;;23.15;40.35;102205.75;16138764;19;129225;-59
2022/07/05 10:15:35;;;;;;;0.63;0.20;;;;;;;23.18;40.36;102207.19;16136519;19;130621;-58
2022/07/05 10:21:01;;;;;;;0.28;0.25;;;;;;;23.21;40.35;102209.50;16138392;19;129001;-58
2022/07/05 10:26:24;;;;;;;1.13;0.30;;;;;;;23.24;40.66;102208.13;16137672;19;129393;-55
2022/07/05 10:31:46;;;;;;;0.22;0.20;;;;;;;23.24;40.00;102196.97;16136452;19;130363;-56
2022/07/05 10:37:08;;;;;;;1.30;0.28;;;;;;;23.24;40.53;102200.63;16129859;19;129451;-58
2022/07/05 10:42:37;;;;;;;1.75;0.47;;;;;;;23.22;40.39;102193.56;16137863;19;130056;-58
2022/07/05 10:48:27;;;;;;;2.63;0.30;;;;;;;23.24;40.19;102203.41;16136412;19;129177;-57
2022/07/05 10:53:55;;;;;;;0.93;0.20;;;;;;;23.26;40.80;102205.97;16130205;19;129122;-58
2022/07/05 10:59:17;;;;;;;2.50;0.30;;;;;;;23.27;40.60;102208.50;16127095;19;130693;-59
2022/07/05 11:04:38;;;;;;;0.63;0.30;;;;;;;23.29;40.75;102211.06;16133064;19;129081;-57
2022/07/05 11:10:02;;;;;;;1.00;0.30;;;;;;;23.30;40.68;102208.00;16135106;19;130230;-58
2022/07/05 11:15:24;;;;;;;0.50;0.20;;;;;;;23.32;40.62;102205.81;16132820;19;129622;-58
2022/07/05 11:20:45;;;;;;;0.88;0.30;;;;;;;23.34;40.33;102198.03;16128625;19;128966;-59
2022/07/05 11:26:07;;;;;;;0.98;0.30;;;;;;;23.37;40.52;102198.66;16133933;19;130422;-58
2022/07/05 11:31:44;;;;;;;1.65;0.30;;;;;;;23.40;40.60;102196.19;16132952;19;129426;-59
2022/07/05 11:37:33;;;;;;;0.63;0.20;;;;;;;23.42;40.47;102196.81;16130570;19;130046;-56
2022/07/05 11:43:25;;;;;;;0.38;0.30;;;;;;;23.45;40.50;102190.69;16135701;19;131075;-56
2022/07/05 11:48:48;;;;;;;1.73;0.30;;;;;;;23.45;40.40;102184.28;16148948;19;129296;-59
2022/07/05 11:54:10;;;;;;;2.10;0.30;;;;;;;23.47;40.46;102191.31;16148519;19;129858;-57
2022/07/05 11:59:40;;;;;;;1.92;0.50;;;;;;;23.49;40.24;102189.13;16141035;19;129475;-59
2022/07/05 12:05:03;;;;;;;1.08;0.22;;;;;;;23.48;40.58;102186.59;16145594;19;131095;-58
2022/07/05 12:16:29;;;;;;;1.08;0.43;;;;;;;23.47;40.07;102191.31;16132266;19;129891;-59
2022/07/05 12:21:54;;;;;;;1.58;0.57;;;;;;;23.48;39.57;102194.97;16136865;19;129810;-59
2022/07/05 12:27:16;;;;;;;1.23;0.65;;;;;;;23.46;39.80;102199.94;16136356;19;130569;-59
2022/07/05 12:32:53;;;;;;;3.95;0.60;;;;;;;23.47;39.93;102196.88;16138585;19;129624;-56
2022/07/05 12:38:20;;;;;;;1.60;0.40;;;;;;;23.45;39.81;102192.66;16132456;19;129420;-58
2022/07/05 12:43:49;;;;;;;1.00;0.40;;;;;;;23.44;39.65;102188.16;16137081;19;128912;-60
2022/07/05 12:49:12;;;;;;;3.85;0.75;;;;;;;23.41;39.94;102194.25;16138433;19;129581;-58
2022/07/05 13:00:16;;;;;;;3.78;0.60;;;;;;;23.42;39.86;102199.59;16139483;19;130071;-58
2022/07/05 13:05:38;;;;;;;1.70;0.50;;;;;;;23.41;39.78;102197.91;16144705;19;129248;-58
2022/07/05 13:11:00;;;;;;;1.20;0.50;;;;;;;23.42;39.70;102201.53;16144111;19;129344;-58
2022/07/05 13:16:21;;;;;;;1.30;0.40;;;;;;;23.42;39.61;102212.69;16138796;19;129683;-58
2022/07/05 13:21:44;;;;;;;1.48;0.38;;;;;;;23.40;39.38;102210.16;16141532;19;129977;-59
2022/07/05 13:27:07;;;;;;;1.33;0.30;;;;;;;23.41;39.54;102211.88;16144459;19;128927;-56
2022/07/05 13:32:29;;;;;;;1.13;0.32;;;;;;;23.40;39.38;102217.69;16144983;19;129735;-57
2022/07/05 13:37:50;;;;;;;2.58;0.30;;;;;;;23.41;39.76;102220.25;16137314;19;128851;-55
2022/07/05 13:43:12;;;;;;;1.13;0.45;;;;;;;23.41;39.70;102231.41;16144688;19;129020;-57
2022/07/05 13:48:34;;;;;;;6.22;0.68;;;;;;;23.42;39.44;102226.66;16140494;19;129122;-57
2022/07/05 13:53:56;;;;;;;1.88;0.40;;;;;;;23.43;39.54;102234.81;16140910;19;129496;-59
2022/07/05 13:59:17;;;;;;;2.10;0.68;;;;;;;23.47;39.77;102229.56;16136149;19;131059;-57
2022/07/05 14:04:39;;;;;;;3.75;0.45;;;;;;;23.46;39.62;102233.47;16140938;19;129488;-58
2022/07/05 14:10:05;;;;;;;9.52;0.65;;;;;;;23.47;39.48;102247.16;16139147;19;129262;-58
2022/07/05 14:15:27;;;;;;;1.33;0.35;;;;;;;23.46;39.14;102250.22;16136879;19;129879;-58
2022/07/05 14:20:49;;;;;;;1.77;0.40;;;;;;;23.46;39.07;102253.00;16140906;19;130448;-58
2022/07/05 14:26:11;;;;;;;0.98;0.30;;;;;;;23.44;39.19;102236.50;16138390;19;129707;-56
2022/07/05 14:31:33;;;;;;;2.75;0.40;;;;;;;23.45;38.87;102242.94;16138441;19;130110;-58
2022/07/05 14:36:55;;;;;;;3.40;0.43;;;;;;;23.44;38.73;102252.41;16135186;19;129190;-57
2022/07/05 14:42:16;;;;;;;2.50;0.60;;;;;;;23.44;38.84;102252.41;16137810;19;129424;-55
2022/07/05 14:47:38;;;;;;;1.13;0.40;;;;;;;23.45;38.46;102265.28;16137077;19;129340;-57
2022/07/05 14:53:07;;;;;;;0.85;0.40;;;;;;;23.46;38.74;102269.78;16136391;19;129433;-59
2022/07/05 14:58:31;;;;;;;2.08;0.70;;;;;;;23.45;38.48;102260.53;16133684;19;130060;-59
2022/07/05 15:03:53;;;;;;;0.73;0.30;;;;;;;23.44;38.62;102263.56;16139190;19;130186;-58
2022/07/05 15:09:15;;;;;;;2.05;0.55;;;;;;;23.45;38.41;102259.69;16136575;19;130792;-58
2022/07/05 15:14:37;;;;;;;1.10;0.30;;;;;;;23.45;38.55;102259.69;16131377;19;130585;-57
2022/07/05 15:19:58;;;;;;;0.75;0.40;;;;;;;23.44;38.41;102263.56;16137739;19;129494;-57
2022/07/05 15:25:20;;;;;;;0.80;0.30;;;;;;;23.42;38.25;102260.19;16149922;19;129003;-57
2022/07/05 15:30:42;;;;;;;0.82;0.35;;;;;;;23.41;37.88;102250.97;16151909;19;129083;-57
2022/07/05 15:36:04;;;;;;;2.83;0.50;;;;;;;23.40;38.02;102267.94;16147366;19;129953;-59
2022/07/05 15:41:26;;;;;;;1.88;0.50;;;;;;;23.36;37.94;102256.44;16147809;19;128978;-55
2022/07/05 15:47:00;;;;;;;1.80;0.30;;;;;;;23.32;37.70;102261.66;16149100;19;129496;-57
2022/07/05 15:52:22;;;;;;;0.90;0.30;;;;;;;23.34;37.86;102270.66;16144090;19;129167;-58
2022/07/05 15:57:44;;;;;;;1.33;0.40;;;;;;;23.31;37.59;102275.88;16146163;19;128995;-52
2022/07/05 16:03:06;;;;;;;1.17;0.20;;;;;;;23.30;37.39;102269.44;16144895;19;130498;-54
2022/07/05 16:08:32;;;;;;;3.50;0.50;;;;;;;23.29;37.38;102273.31;16145945;19;129870;-57
2022/07/05 16:13:55;;;;;;;1.40;0.50;;;;;;;23.30;37.19;102271.38;16146719;19;128997;-57
2022/07/05 16:19:17;;;;;;;1.42;0.40;;;;;;;23.29;36.92;102280.84;16141603;19;128978;-57
2022/07/05 16:24:38;;;;;;;2.10;0.40;;;;;;;23.30;37.16;102279.75;16146149;19;129749;-53
2022/07/05 16:30:00;;;;;;;1.88;0.73;;;;;;;23.31;37.12;102282.31;16143122;19;129023;-53
2022/07/05 16:35:23;;;;;;;1.98;0.63;;;;;;;23.34;36.89;102295.78;16144910;19;129636;-55
2022/07/05 16:40:45;;;;;;;3.63;0.50;;;;;;;23.35;37.06;102289.09;16143638;19;129805;-56
2022/07/05 16:46:08;;;;;;;2.55;0.50;;;;;;;23.33;36.60;102302.44;16144992;19;129959;-57
2022/07/05 16:51:30;;;;;;;1.05;0.50;;;;;;;23.34;36.81;102300.50;16145904;19;131864;-56
2022/07/05 16:56:55;;;;;;;1.80;0.50;;;;;;;23.35;36.57;102294.69;16141998;19;129391;-57
2022/07/05 17:02:20;;;;;;;1.27;0.38;;;;;;;23.37;36.60;102291.63;16144075;19;129936;-56
2022/07/05 17:07:42;;;;;;;0.80;0.43;;;;;;;23.39;36.55;102299.75;16141812;19;129257;-54
2022/07/05 17:13:04;;;;;;;2.35;0.60;;;;;;;23.40;36.48;102298.66;16143737;19;130070;-57
2022/07/05 17:18:25;;;;;;;2.10;0.40;;;;;;;23.40;36.41;102309.84;16136822;19;129981;-57
2022/07/05 17:23:48;;;;;;;1.85;0.43;;;;;;;23.39;36.21;102305.34;16142958;19;130643;-51
2022/07/05 17:29:10;;;;;;;3.95;0.70;;;;;;;23.37;36.07;102313.97;16140905;19;128902;-58
2022/07/05 17:34:32;;;;;;;1.55;0.50;;;;;;;23.35;35.56;102322.63;16137025;19;129491;-58
2022/07/05 17:39:53;;;;;;;5.93;0.60;;;;;;;23.35;36.06;102332.91;16128923;19;129976;-58
2022/07/05 17:45:15;;;;;;;3.35;0.55;;;;;;;23.35;36.01;102344.09;16132732;19;129536;-58
2022/07/05 17:50:37;;;;;;;7.18;0.70;;;;;;;23.34;35.63;102347.97;16137503;19;129754;-56
2022/07/05 17:56:13;;;;;;;10.45;0.70;;;;;;;23.33;36.03;102347.13;16137768;19;132223;-55
2022/07/05 18:01:34;;;;;;;;;;;;;;;23.30;35.97;102347.63;16138824;19;130709;-57
2022/07/05 18:06:57;;;;;;;6.85;0.90;;;;;;;23.32;35.97;102356.59;16139617;19;128843;-56
2022/07/05 18:12:19;;;;;;;5.55;0.90;;;;;;;23.33;35.88;102360.22;16138686;19;129502;-56
2022/07/05 18:17:40;;;;;;;7.80;0.70;;;;;;;23.32;35.81;102353.81;16135551;19;130439;-58
2022/07/05 18:23:03;;;;;;;8.30;0.70;;;;;;;23.31;36.07;102371.66;16138375;19;129271;-57
2022/07/05 18:28:24;;;;;;;3.88;0.63;;;;;;;23.31;35.91;102365.25;16131306;19;129361;-57
2022/07/05 18:33:47;;;;;;;3.15;0.60;;;;;;;23.30;35.92;102374.69;16137686;19;129501;-57
2022/07/05 18:39:09;;;;;;;8.68;0.90;;;;;;;23.29;35.92;102378.59;16132772;19;128968;-58
2022/07/05 18:44:30;;;;;;;4.72;0.60;;;;;;;23.29;35.64;102378.59;16136428;19;129481;-56
2022/07/05 18:49:52;;;;;;;4.88;0.60;;;;;;;23.29;35.96;102385.00;16138988;19;128901;-58
2022/07/05 18:55:14;;;;;;;5.70;0.80;;;;;;;23.29;35.67;102385.00;16142676;19;130623;-58
2022/07/05 19:00:36;;;;;;;14.10;1.30;;;;;;;23.26;35.64;102393.03;16134695;19;130743;-57
2022/07/05 19:17:18;;;;;;;4.38;0.82;;;;;;;23.25;35.64;102408.06;16144380;19;130996;-55
2022/07/05 19:22:41;;;;;;;7.50;0.90;;;;;;;23.25;35.81;102408.94;16145324;19;129001;-56
2022/07/05 19:28:04;;;;;;;6.53;0.93;;;;;;;23.26;35.70;102419.03;16146796;19;130490;-54
2022/07/05 19:33:32;;;;;;;13.10;0.90;;;;;;;23.25;36.02;102414.53;16144779;19;129433;-56
2022/07/05 19:38:54;;;;;;;9.48;1.20;;;;;;;23.25;35.92;102417.31;16139889;19;130184;-57
2022/07/05 19:44:16;;;;;;;6.68;0.65;;;;;;;23.23;36.62;102408.31;16140523;19;129872;-57
2022/07/05 19:49:38;;;;;;;3.92;0.68;;;;;;;23.24;36.12;102414.75;16146534;19;130066;-58
2022/07/05 19:55:00;;;;;;;4.22;0.50;;;;;;;23.25;36.21;102422.91;16146483;19;130594;-58
2022/07/05 20:00:21;;;;;;;9.65;0.52;;;;;;;23.28;36.39;102427.16;16141537;19;130112;-56
2022/07/05 20:05:44;;;;;;;6.28;0.60;;;;;;;23.29;36.51;102440.00;16145312;19;129065;-57
2022/07/05 20:11:06;;;;;;;3.70;0.77;;;;;;;23.30;36.79;102441.72;16145778;19;130776;-58
2022/07/05 20:16:29;;;;;;;4.53;0.38;;;;;;;23.31;36.50;102449.00;16140190;19;130922;-58
2022/07/05 20:21:51;;;;;;;6.13;0.65;;;;;;;23.29;36.71;102457.59;16140142;19;129401;-57
2022/07/05 20:27:13;;;;;;;5.88;0.50;;;;;;;23.29;36.90;102463.19;16143985;19;130087;-58
2022/07/05 20:32:35;;;;;;;4.30;0.50;;;;;;;23.28;36.96;102469.88;16140571;19;129339;-57
2022/07/05 20:37:56;;;;;;;2.08;0.50;;;;;;;23.28;37.20;102466.22;16133641;19;130266;-53
2022/07/05 20:43:20;;;;;;;2.53;0.55;;;;;;;23.27;37.11;102473.75;16135764;19;130641;-57
2022/07/05 20:48:42;;;;;;;4.85;0.52;;;;;;;23.27;37.19;102475.69;16133571;19;129039;-55
2022/07/05 20:54:04;;;;;;;6.05;0.50;;;;;;;23.24;37.13;102479.84;16135369;19;130110;-54
2022/07/05 20:59:26;;;;;;;3.92;0.57;;;;;;;23.20;37.48;102486.97;16134542;19;130557;-55
2022/07/05 21:04:48;;;;;;;2.33;0.35;;;;;;;23.18;37.38;102484.44;16138737;19;129959;-56
2022/07/05 21:10:11;;;;;;;6.72;0.65;;;;;;;23.17;37.20;102487.44;16138329;19;130165;-56
2022/07/05 21:15:33;;;;;;;3.70;0.60;;;;;;;23.15;37.47;102498.00;16135261;19;129244;-56
2022/07/05 21:20:56;;;;;;;2.45;0.57;;;;;;;23.13;37.41;102498.25;16136851;19;130232;-56
2022/07/05 21:26:17;;;;;;;2.70;0.68;;;;;;;23.12;37.55;102506.88;16136663;19;128822;-56
2022/07/05 21:31:39;;;;;;;1.90;0.65;;;;;;;23.10;37.63;102509.06;16139130;19;130979;-55
2022/07/05 21:37:01;;;;;;;0.70;0.30;;;;;;;23.08;37.94;102517.66;16139031;19;129668;-57
2022/07/05 21:42:23;;;;;;;1.30;0.28;;;;;;;23.07;37.70;102509.53;16134541;19;129781;-56
2022/07/05 21:47:45;;;;;;;0.98;0.20;;;;;;;23.05;37.76;102513.41;16137744;19;130288;-56
2022/07/05 21:53:06;;;;;;;0.57;0.20;;;;;;;23.05;37.98;102523.72;16136020;19;129376;-55
2022/07/05 21:58:29;;;;;;;0.35;0.20;;;;;;;23.03;37.67;102525.91;16136351;19;129658;-56
2022/07/05 22:09:33;;;;;;;0.32;0.20;;;;;;;23.01;37.74;102540.09;16139037;19;129802;-55
2022/07/05 22:14:55;;;;;;;0.40;0.20;;;;;;;23.00;38.05;102549.56;16137168;19;129210;-57
2022/07/05 22:20:17;;;;;;;0.60;0.20;;;;;;;23.00;37.84;102545.91;16130193;19;129952;-56
2022/07/05 22:25:39;;;;;;;2.45;0.32;;;;;;;23.00;37.71;102541.19;16136146;19;129452;-55
2022/07/05 22:31:01;;;;;;;2.00;0.20;;;;;;;22.99;37.74;102533.03;16133153;19;129642;-56
2022/07/05 22:36:23;;;;;;;0.50;0.20;;;;;;;22.98;37.94;102548.06;16135852;19;128977;-56
2022/07/05 22:41:44;;;;;;;0.22;0.20;;;;;;;22.97;38.08;102550.03;16132630;19;130661;-57
2022/07/05 22:47:08;;;;;;;1.38;0.35;;;;;;;22.96;37.93;102548.31;16135949;19;128997;-56
2022/07/05 22:52:29;;;;;;;2.25;0.20;;;;;;;22.94;38.19;102539.34;16136581;19;130215;-56
2022/07/05 22:57:51;;;;;;;0.38;0.10;;;;;;;22.92;38.12;102540.66;16132833;19;129902;-53
2022/07/05 23:03:13;;;;;;;0.80;0.20;;;;;;;22.91;38.24;102536.16;16132632;19;129508;-52
2022/07/05 23:08:39;;;;;;;0.45;0.20;;;;;;;22.89;38.27;102533.59;16133465;19;130043;-55
2022/07/05 23:14:01;;;;;;;0.68;0.28;;;;;;;22.89;38.11;102541.97;16131044;19;130528;-56
2022/07/05 23:19:23;;;;;;;1.33;0.20;;;;;;;22.87;38.14;102544.97;16129826;19;129467;-56
2022/07/05 23:24:56;;;;;;;0.85;0.20;;;;;;;22.86;38.63;102559.19;16132920;19;130187;-54
2022/07/05 23:30:18;;;;;;;0.73;0.32;;;;;;;22.85;37.99;102535.97;16131375;19;129571;-56
2022/07/05 23:35:40;;;;;;;1.30;0.10;;;;;;;22.84;38.38;102530.66;16130103;19;130927;-56
2022/07/05 23:41:02;;;;;;;0.90;0.40;;;;;;;22.82;38.33;102544.84;16134374;19;130306;-54
2022/07/05 23:46:24;;;;;;;0.82;0.20;;;;;;;22.81;38.23;102545.94;16146524;19;130903;-56
2022/07/05 23:51:46;;;;;;;0.10;0.10;;;;;;;22.80;38.66;102544.22;16147203;19;131903;-55
2022/07/05 23:57:07;;;;;;;0.40;0.17;;;;;;;22.79;38.43;102552.81;16144666;19;129862;-57
